Terminal Aerodrome Forecast
Issued by NWS

Home | Current Version | Previous Version | Text Only | Print | Product List | Glossary On
Versions: 1 2 3 4 5 6 7 8 9 10 11 12 13 14 15 16
000
FTUS43 KDTX 292337
TAFDET
TAF
KDET 292337Z 3000/3024 18008KT P6SM SCT080 BKN250
     FM300700 20010KT P6SM BKN060 OVC150
     FM301600 23013KT 5SM -SHRA OVC045 PROB30 3017/3020 2SM TSRA
      OVC025CB
     FM302200 03013G20KT 4SM -SHRA BR OVC007=

USA.gov is the U.S. government's official web portal to all federal, state and local government web resources and services.